createdAt,value
2022-11-02T00:01:46.149Z,20.73
2022-11-02T00:04:23.733Z,19.03
2022-11-02T00:06:52.098Z,15.90
2022-11-02T00:09:22.551Z,18.70
2022-11-02T00:11:54.099Z,18.20
2022-11-02T00:14:25.251Z,18.77
2022-11-02T00:16:56.903Z,14.43
2022-11-02T00:19:25.576Z,14.40
2022-11-02T00:29:33.631Z,15.60
2022-11-02T00:32:01.299Z,14.60
2022-11-02T00:34:29.061Z,19.50
2022-11-02T00:36:57.424Z,19.90
2022-11-02T00:39:26.258Z,13.00
2022-11-02T00:42:02.080Z,15.10
2022-11-02T00:44:30.396Z,19.87
2022-11-02T00:47:05.938Z,12.97
2022-11-02T00:49:41.749Z,19.53
2022-11-02T00:52:10.264Z,17.20
2022-11-02T00:54:38.469Z,14.60
2022-11-02T00:57:07.263Z,11.43
2022-11-02T00:59:36.503Z,15.33
2022-11-02T01:02:03.851Z,15.43
2022-11-02T01:04:32.379Z,15.63
2022-11-02T01:07:00.729Z,13.33
2022-11-02T01:09:31.998Z,15.17
2022-11-02T01:12:00.377Z,11.87
2022-11-02T01:14:29.517Z,14.23
2022-11-02T01:16:59.018Z,13.73
2022-11-02T01:19:38.042Z,12.77
2022-11-02T01:22:09.933Z,10.47
2022-11-02T01:24:39.059Z,13.40
2022-11-02T01:27:16.109Z,14.13
2022-11-02T01:29:46.092Z,15.73
2022-11-02T01:32:22.168Z,12.00
2022-11-02T01:34:49.670Z,12.50
2022-11-02T01:37:25.328Z,14.17
2022-11-02T01:39:53.612Z,13.70
2022-11-02T01:42:25.386Z,13.57
2022-11-02T01:44:54.874Z,14.80
2022-11-02T01:47:32.917Z,11.43
2022-11-02T01:50:10.513Z,10.80
2022-11-02T01:52:42.978Z,10.27
2022-11-02T01:55:31.713Z,11.33
2022-11-02T02:03:40.108Z,13.90
2022-11-02T02:06:18.314Z,13.93
2022-11-02T02:08:58.914Z,13.60
2022-11-02T02:11:47.863Z,12.70
2022-11-02T02:14:28.504Z,11.57
2022-11-02T02:17:43.992Z,11.63
2022-11-02T02:20:45.717Z,10.73
2022-11-02T02:23:50.323Z,11.53
2022-11-02T02:26:50.804Z,11.70
2022-11-02T02:29:45.732Z,12.00
2022-11-02T02:32:20.433Z,12.83
2022-11-02T02:35:08.033Z,13.77
2022-11-02T02:37:55.363Z,10.83
2022-11-02T02:40:33.749Z,9.00
2022-11-02T02:43:32.666Z,9.33
2022-11-02T02:46:05.618Z,11.67
2022-11-02T02:48:34.591Z,12.23
2022-11-02T02:51:06.535Z,12.97
2022-11-02T02:53:48.615Z,13.13
2022-11-02T02:56:19.317Z,11.00
2022-11-02T02:58:51.610Z,10.43
2022-11-02T03:01:35.304Z,10.40
2022-11-02T03:04:02.456Z,12.00
2022-11-02T03:06:47.897Z,9.93
2022-11-02T03:09:21.356Z,10.77
2022-11-02T03:11:57.792Z,11.50
2022-11-02T03:14:46.378Z,13.10
2022-11-02T03:17:17.402Z,10.87
2022-11-02T03:20:08.791Z,11.93
2022-11-02T03:22:53.302Z,12.73
2022-11-02T03:25:39.836Z,11.23
2022-11-02T03:28:34.279Z,11.07
2022-11-02T03:31:17.061Z,11.40
2022-11-02T03:34:06.040Z,8.90
2022-11-02T03:37:19.692Z,8.73
2022-11-02T03:39:50.936Z,11.53
2022-11-02T03:42:27.338Z,10.50
2022-11-02T03:45:15.777Z,9.13
2022-11-02T03:47:47.486Z,8.53
2022-11-02T03:50:18.681Z,9.40
2022-11-02T03:52:48.696Z,11.27
2022-11-02T03:55:50.031Z,11.10
2022-11-02T03:58:17.335Z,9.50
2022-11-02T04:04:11.281Z,9.63
2022-11-02T04:06:39.816Z,9.10
2022-11-02T04:09:07.422Z,10.80
2022-11-02T04:11:52.952Z,9.27
2022-11-02T04:14:38.121Z,9.83
2022-11-02T04:20:19.835Z,11.77
2022-11-02T04:23:05.257Z,8.40
2022-11-02T04:25:32.339Z,8.77
2022-11-02T04:28:07.986Z,8.33
2022-11-02T04:30:35.056Z,10.67
2022-11-02T04:33:20.377Z,9.43
2022-11-02T04:35:47.401Z,7.90
2022-11-02T04:38:32.875Z,8.30
2022-11-02T04:41:19.264Z,12.53
2022-11-02T04:43:46.272Z,13.07
2022-11-02T04:46:13.309Z,9.13
2022-11-02T04:48:40.471Z,10.67
2022-11-02T04:51:07.500Z,9.53
2022-11-02T04:53:41.243Z,12.23
2022-11-02T04:56:11.314Z,10.33
2022-11-02T04:58:38.435Z,9.40
2022-11-02T05:01:11.525Z,8.43
2022-11-02T05:03:38.541Z,9.50
2022-11-02T05:06:05.998Z,10.07
2022-11-02T05:08:33.421Z,9.13
2022-11-02T05:11:00.621Z,9.37
2022-11-02T05:13:37.261Z,9.37
2022-11-02T05:16:04.646Z,10.20
2022-11-02T05:18:32.306Z,11.50
2022-11-02T05:21:01.439Z,9.63
2022-11-02T05:23:29.401Z,11.63
2022-11-02T05:25:57.757Z,12.00
2022-11-02T05:28:25.341Z,10.10
2022-11-02T05:30:52.586Z,9.23
2022-11-02T05:33:20.307Z,10.53
2022-11-02T05:35:47.757Z,9.97
2022-11-02T05:38:14.984Z,8.47
2022-11-02T05:40:42.001Z,11.00
2022-11-02T05:43:09.879Z,9.97
2022-11-02T05:45:37.240Z,9.33
2022-11-02T05:48:07.999Z,11.67
2022-11-02T05:50:35.053Z,11.60
2022-11-02T05:53:02.305Z,13.37
2022-11-02T05:55:29.511Z,10.77
2022-11-02T05:57:56.606Z,14.67
2022-11-02T06:00:24.450Z,11.03
2022-11-02T06:02:57.520Z,9.77
2022-11-02T06:05:25.843Z,10.80
2022-11-02T06:07:52.923Z,10.10
2022-11-02T06:10:19.880Z,9.90
2022-11-02T06:12:58.588Z,9.47
2022-11-02T06:15:26.016Z,11.57
2022-11-02T06:17:53.136Z,8.77
2022-11-02T06:20:20.740Z,9.57
2022-11-02T06:22:48.421Z,11.77
2022-11-02T06:25:15.962Z,10.30
2022-11-02T06:27:49.871Z,11.43
2022-11-02T06:30:16.961Z,10.90
2022-11-02T06:32:51.981Z,11.10
2022-11-02T06:35:20.656Z,10.67
2022-11-02T06:37:47.739Z,13.17
2022-11-02T06:40:19.379Z,11.30
2022-11-02T06:43:15.523Z,12.90
2022-11-02T06:45:43.272Z,11.30
2022-11-02T06:48:10.264Z,11.10
2022-11-02T06:50:37.172Z,12.50
2022-11-02T06:53:04.603Z,16.67
2022-11-02T06:55:31.800Z,9.83
2022-11-02T06:57:58.820Z,12.23
2022-11-02T07:00:58.679Z,11.13
2022-11-02T07:03:26.036Z,10.50
2022-11-02T07:05:53.826Z,11.00
2022-11-02T07:08:24.516Z,11.00
2022-11-02T07:10:51.717Z,13.93
2022-11-02T07:13:19.135Z,13.07
2022-11-02T07:15:46.574Z,10.23
2022-11-02T07:18:14.478Z,13.67
2022-11-02T07:20:41.496Z,13.30
2022-11-02T07:23:09.863Z,10.53
2022-11-02T07:25:37.221Z,11.20
2022-11-02T07:28:04.633Z,9.35
2022-11-02T07:30:34.800Z,9.75
2022-11-02T07:33:02.503Z,8.40
2022-11-02T07:35:30.084Z,8.55
2022-11-02T07:38:02.171Z,9.23
2022-11-02T07:40:31.107Z,9.15
2022-11-02T07:42:58.981Z,7.78
2022-11-02T07:45:26.262Z,8.93
2022-11-02T07:47:53.360Z,7.13
2022-11-02T07:50:23.820Z,7.88
2022-11-02T07:52:53.500Z,5.90
2022-11-02T07:55:26.400Z,7.75
2022-11-02T07:58:02.025Z,6.97
2022-11-02T08:00:32.017Z,5.22
2022-11-02T08:03:06.340Z,6.18
2022-11-02T08:05:42.646Z,6.18
2022-11-02T08:08:26.120Z,6.65
2022-11-02T08:10:54.344Z,10.55
2022-11-02T08:13:26.189Z,7.38
2022-11-02T08:16:02.942Z,7.40
2022-11-02T08:18:40.702Z,6.55
2022-11-02T08:21:13.846Z,6.80
2022-11-02T08:23:41.844Z,5.88
2022-11-02T08:26:12.241Z,5.50
2022-11-02T08:28:50.186Z,7.68
2022-11-02T08:31:18.107Z,5.40
2022-11-02T08:33:54.146Z,6.20
2022-11-02T08:36:22.490Z,6.85
2022-11-02T08:38:51.182Z,8.75
2022-11-02T08:41:20.402Z,8.27
2022-11-02T08:43:49.952Z,6.82
2022-11-02T08:46:18.648Z,8.65
2022-11-02T08:48:48.282Z,7.70
2022-11-02T08:51:24.620Z,7.75
2022-11-02T08:53:55.082Z,8.25
2022-11-02T08:56:26.182Z,6.43
2022-11-02T08:58:54.601Z,9.75
2022-11-02T09:01:33.116Z,8.90
2022-11-02T09:04:03.485Z,9.90
2022-11-02T09:06:32.091Z,8.95
2022-11-02T09:09:00.363Z,7.10
2022-11-02T09:11:38.267Z,13.80
2022-11-02T09:14:15.727Z,8.05
2022-11-02T09:16:45.841Z,10.27
2022-11-02T09:19:14.326Z,9.65
2022-11-02T09:21:42.839Z,7.90
2022-11-02T09:24:12.139Z,12.60
2022-11-02T09:26:51.672Z,9.77
2022-11-02T09:29:21.046Z,9.50
2022-11-02T09:31:49.521Z,9.68
2022-11-02T09:34:20.021Z,9.10
2022-11-02T09:36:49.328Z,7.80
2022-11-02T09:39:19.136Z,10.55
2022-11-02T09:41:59.885Z,7.38
2022-11-02T09:44:47.297Z,7.32
2022-11-02T09:50:12.922Z,10.50
2022-11-02T09:52:47.067Z,8.60
2022-11-02T09:55:23.687Z,11.35
2022-11-02T09:58:05.464Z,10.13
2022-11-02T10:00:51.157Z,13.75
2022-11-02T10:03:44.041Z,8.80
2022-11-02T10:06:20.151Z,9.90
2022-11-02T10:09:10.033Z,8.32
2022-11-02T10:12:03.968Z,10.32
2022-11-02T10:14:41.279Z,7.80
2022-11-02T10:17:23.463Z,7.45
2022-11-02T10:20:00.321Z,10.75
2022-11-02T10:22:50.888Z,10.47
2022-11-02T10:25:27.041Z,9.80
2022-11-02T10:28:05.176Z,10.27
2022-11-02T10:30:35.813Z,11.10
2022-11-02T10:33:16.274Z,11.43
2022-11-02T10:36:22.327Z,13.20
2022-11-02T10:39:26.824Z,10.05
2022-11-02T10:42:18.027Z,9.07
2022-11-02T10:45:27.720Z,11.18
2022-11-02T10:48:33.614Z,11.73
2022-11-02T10:51:13.765Z,10.63
2022-11-02T10:53:55.229Z,9.63
2022-11-02T10:56:33.927Z,8.50
2022-11-02T10:59:10.625Z,9.70
2022-11-02T11:02:03.458Z,9.75
2022-11-02T11:04:50.550Z,9.00
2022-11-02T11:07:27.521Z,7.28
2022-11-02T11:10:06.436Z,7.93
2022-11-02T11:12:41.276Z,7.30
2022-11-02T11:15:48.127Z,9.18
2022-11-02T11:21:13.382Z,8.85
2022-11-02T11:23:43.152Z,9.10
2022-11-02T11:26:29.440Z,10.77
2022-11-02T11:29:01.445Z,8.85
2022-11-02T11:31:35.671Z,9.00
2022-11-02T11:34:13.092Z,8.75
2022-11-02T11:36:48.026Z,6.72
2022-11-02T11:39:37.537Z,9.02
2022-11-02T11:42:05.772Z,6.07
2022-11-02T11:44:36.171Z,11.40
2022-11-02T11:47:07.079Z,6.55
2022-11-02T11:52:46.508Z,7.60
2022-11-02T11:55:50.111Z,7.50
2022-11-02T11:58:32.296Z,7.18
2022-11-02T12:01:21.924Z,6.47
2022-11-02T12:04:01.639Z,5.80
2022-11-02T12:07:21.229Z,9.57
2022-11-02T12:10:25.702Z,7.05
2022-11-02T12:13:05.267Z,5.25
2022-11-02T12:16:12.225Z,4.93
2022-11-02T12:19:03.022Z,6.07
2022-11-02T12:22:18.156Z,7.72
2022-11-02T12:25:16.321Z,5.50
2022-11-02T12:27:55.440Z,5.95
2022-11-02T12:30:31.032Z,5.65
2022-11-02T12:33:36.156Z,7.95
2022-11-02T12:36:21.535Z,4.82
2022-11-02T12:39:08.279Z,5.40
2022-11-02T12:42:33.361Z,5.13
2022-11-02T12:45:52.438Z,6.70
2022-11-02T12:48:37.476Z,4.25
2022-11-02T12:51:11.876Z,4.20
2022-11-02T12:53:55.191Z,6.03
2022-11-02T12:56:45.357Z,6.35
2022-11-02T12:59:25.289Z,3.83
2022-11-02T13:01:59.647Z,5.45
2022-11-02T13:04:51.817Z,7.95
2022-11-02T13:07:51.002Z,9.07
2022-11-02T13:10:33.177Z,5.45
2022-11-02T13:13:03.805Z,7.00
2022-11-02T13:15:45.571Z,4.88
2022-11-02T13:18:47.341Z,5.70
2022-11-02T13:21:24.433Z,4.15
2022-11-02T13:24:02.782Z,5.75
2022-11-02T13:26:57.544Z,6.50
2022-11-02T13:29:48.985Z,4.93
2022-11-02T13:32:44.242Z,4.55
2022-11-02T13:35:26.850Z,6.32
2022-11-02T13:38:32.699Z,5.82
2022-11-02T13:41:42.037Z,3.88
2022-11-02T13:44:47.996Z,8.27
2022-11-02T13:47:42.191Z,5.00
2022-11-02T13:50:14.991Z,4.95
2022-11-02T13:52:58.639Z,5.88
2022-11-02T13:55:45.583Z,3.45
2022-11-02T13:58:33.955Z,6.82
2022-11-02T14:01:12.735Z,3.70
2022-11-02T14:04:17.216Z,3.78
2022-11-02T14:07:01.432Z,4.57
2022-11-02T14:10:03.437Z,5.13
2022-11-02T14:12:46.301Z,4.90
2022-11-02T14:15:21.802Z,4.70
2022-11-02T14:18:26.367Z,5.03
2022-11-02T14:20:56.246Z,5.45
2022-11-02T14:23:38.480Z,5.57
2022-11-02T14:26:31.660Z,6.00
2022-11-02T14:29:03.778Z,6.07
2022-11-02T14:31:42.921Z,9.15
2022-11-02T14:34:35.056Z,6.43
2022-11-02T14:37:36.609Z,4.47
2022-11-02T14:40:36.633Z,5.47
2022-11-02T14:43:34.657Z,5.40
2022-11-02T14:46:35.915Z,3.33
2022-11-02T14:49:06.085Z,6.40
2022-11-02T14:51:38.959Z,6.10
2022-11-02T14:54:22.439Z,3.20
2022-11-02T14:56:56.702Z,5.32
2022-11-02T14:59:53.226Z,6.65
2022-11-02T15:02:43.157Z,3.63
2022-11-02T15:05:40.896Z,7.07
2022-11-02T15:08:29.057Z,4.97
2022-11-02T15:11:07.167Z,5.78
2022-11-02T15:13:50.016Z,4.75
2022-11-02T15:16:22.138Z,7.05
2022-11-02T15:19:01.267Z,5.05
2022-11-02T15:21:30.051Z,6.82
2022-11-02T15:24:17.333Z,4.97
2022-11-02T15:26:58.736Z,6.72
2022-11-02T15:29:44.607Z,5.03
2022-11-02T15:32:30.241Z,3.80
2022-11-02T15:35:02.647Z,3.90
2022-11-02T15:38:10.952Z,4.82
2022-11-02T15:40:44.913Z,6.13
2022-11-02T15:44:09.989Z,3.88
2022-11-02T15:47:10.042Z,4.93
2022-11-02T15:50:05.594Z,4.55
2022-11-02T15:53:29.090Z,7.45
2022-11-02T15:56:15.544Z,6.50
2022-11-02T15:59:22.321Z,7.93
2022-11-02T16:02:20.430Z,5.85
2022-11-02T16:08:05.392Z,6.13
2022-11-02T16:10:38.809Z,4.93
2022-11-02T16:13:24.976Z,4.50
2022-11-02T16:16:06.553Z,5.50
2022-11-02T16:18:40.803Z,6.50
2022-11-02T16:21:18.182Z,4.95
2022-11-02T16:23:56.866Z,5.20
2022-11-02T16:26:30.756Z,4.85
2022-11-02T16:29:01.886Z,5.30
2022-11-02T16:31:32.956Z,6.57
2022-11-02T16:34:23.379Z,6.03
2022-11-02T16:36:53.296Z,9.48
2022-11-02T16:39:39.183Z,12.52
2022-11-02T16:42:19.711Z,16.98
2022-11-02T16:45:07.724Z,16.63
2022-11-02T16:47:45.640Z,7.95
2022-11-02T16:50:47.301Z,6.25
2022-11-02T16:53:33.798Z,6.38
2022-11-02T16:56:46.543Z,5.22
2022-11-02T16:59:16.437Z,5.65
2022-11-02T17:01:46.777Z,6.55
2022-11-02T17:07:44.992Z,7.95
2022-11-02T17:10:29.146Z,7.25
2022-11-02T17:12:57.365Z,6.97
2022-11-02T17:15:40.481Z,8.05
2022-11-02T17:18:18.901Z,6.10
2022-11-02T17:21:16.128Z,6.28
2022-11-02T17:23:48.945Z,6.57
2022-11-02T17:26:38.282Z,6.07
2022-11-02T17:29:33.240Z,5.13
2022-11-02T17:32:03.828Z,6.47
2022-11-02T17:34:31.824Z,6.93
2022-11-02T17:37:07.199Z,7.57
2022-11-02T17:39:35.491Z,9.38
2022-11-02T17:42:25.409Z,6.03
2022-11-02T17:44:53.839Z,6.82
2022-11-02T17:47:22.559Z,11.88
2022-11-02T17:49:53.201Z,8.35
2022-11-02T17:52:20.524Z,14.63
2022-11-02T17:54:48.562Z,9.07
2022-11-02T17:57:18.720Z,10.98
2022-11-02T17:59:54.491Z,9.10
2022-11-02T18:02:22.403Z,11.80
2022-11-02T18:07:44.998Z,7.13
2022-11-02T18:10:23.638Z,8.27
2022-11-02T18:12:57.731Z,16.48
2022-11-02T18:15:35.204Z,6.95
2022-11-02T18:18:02.280Z,12.13
2022-11-02T18:20:40.197Z,9.05
2022-11-02T18:23:20.811Z,7.57
2022-11-02T18:25:51.767Z,6.38
2022-11-02T18:28:33.075Z,7.07
2022-11-02T18:31:00.084Z,10.88
2022-11-02T18:33:28.596Z,8.40
2022-11-02T18:36:08.482Z,6.90
2022-11-02T18:38:37.669Z,9.38
2022-11-02T18:41:27.238Z,7.15
2022-11-02T18:44:04.651Z,6.65
2022-11-02T18:47:02.993Z,7.47
2022-11-02T18:49:38.676Z,8.57
2022-11-02T18:52:06.960Z,8.82
2022-11-02T18:54:36.999Z,6.97
2022-11-02T18:57:07.816Z,9.77
2022-11-02T18:59:36.871Z,8.90
2022-11-02T19:02:08.500Z,8.68
2022-11-02T19:04:38.081Z,9.43
2022-11-02T19:07:24.942Z,9.17
2022-11-02T19:09:57.425Z,8.87
2022-11-02T19:12:32.292Z,11.10
2022-11-02T19:15:02.382Z,7.03
2022-11-02T19:17:32.493Z,5.20
2022-11-02T19:20:09.636Z,3.80
2022-11-02T19:22:37.999Z,3.90
2022-11-02T19:25:07.351Z,5.73
2022-11-02T19:27:34.281Z,4.13
2022-11-02T19:30:11.568Z,3.10
2022-11-02T19:32:38.542Z,4.97
2022-11-02T19:35:15.066Z,5.17
2022-11-02T19:37:45.590Z,5.07
2022-11-02T19:40:14.122Z,5.37
2022-11-02T19:42:42.899Z,3.27
2022-11-02T19:45:17.877Z,7.67
2022-11-02T19:47:55.920Z,3.20
2022-11-02T19:50:25.516Z,3.37
2022-11-02T19:52:54.640Z,3.20
2022-11-02T19:55:30.388Z,6.37
2022-11-02T19:57:58.400Z,5.03
2022-11-02T20:00:35.043Z,4.37
2022-11-02T20:03:02.888Z,3.37
2022-11-02T20:08:19.656Z,3.13
2022-11-02T20:10:48.103Z,3.13
2022-11-02T20:13:21.125Z,2.40
2022-11-02T20:15:49.288Z,2.40
2022-11-02T20:18:20.050Z,2.70
2022-11-02T20:20:59.893Z,3.37
2022-11-02T20:23:36.997Z,3.50
2022-11-02T20:26:11.935Z,3.40
2022-11-02T20:28:45.016Z,4.10
2022-11-02T20:31:27.253Z,4.53
2022-11-02T20:33:56.256Z,3.00
2022-11-02T20:36:27.877Z,4.03
2022-11-02T20:38:57.002Z,3.60
2022-11-02T20:41:28.413Z,3.63
2022-11-02T20:43:57.126Z,3.27
2022-11-02T20:46:38.944Z,4.20
2022-11-02T20:49:21.738Z,2.67
2022-11-02T20:51:59.759Z,3.77
2022-11-02T20:54:33.337Z,2.93
2022-11-02T20:57:02.907Z,3.00
2022-11-02T20:59:38.955Z,2.97
2022-11-02T21:02:14.094Z,3.20
2022-11-02T21:04:45.347Z,3.93
2022-11-02T21:07:16.320Z,3.70
2022-11-02T21:09:46.177Z,2.60
2022-11-02T21:12:37.657Z,3.60
2022-11-02T21:15:09.260Z,2.60
2022-11-02T21:17:36.296Z,2.83
2022-11-02T21:20:28.325Z,4.13
2022-11-02T21:22:52.740Z,2.90
2022-11-02T21:25:21.962Z,3.20
2022-11-02T21:27:58.836Z,3.10
2022-11-02T21:30:27.756Z,5.00
2022-11-02T21:32:59.396Z,3.77
2022-11-02T21:35:28.022Z,3.50
2022-11-02T21:38:05.265Z,3.13
2022-11-02T21:40:37.359Z,3.90
2022-11-02T21:43:15.016Z,4.40
2022-11-02T21:46:00.751Z,3.73
2022-11-02T21:48:39.997Z,3.47
2022-11-02T21:51:20.942Z,4.33
2022-11-02T21:53:57.889Z,3.33
2022-11-02T21:56:33.164Z,4.20
2022-11-02T21:59:02.359Z,4.53
2022-11-02T22:01:50.937Z,5.57
2022-11-02T22:04:32.440Z,2.70
2022-11-02T22:07:02.066Z,2.60
2022-11-02T22:09:33.700Z,2.67
2022-11-02T22:12:25.587Z,2.80
2022-11-02T22:14:55.423Z,3.47
2022-11-02T22:17:47.889Z,2.73
2022-11-02T22:20:13.622Z,2.43
2022-11-02T22:22:43.063Z,3.10
2022-11-02T22:25:13.873Z,2.57
2022-11-02T22:27:42.301Z,4.67
2022-11-02T22:30:11.033Z,3.93
2022-11-02T22:32:39.003Z,7.20
2022-11-02T22:35:16.216Z,5.50
2022-11-02T22:38:04.736Z,5.07
2022-11-02T22:40:33.432Z,4.60
2022-11-02T22:43:00.747Z,5.67
2022-11-02T22:45:30.839Z,4.13
2022-11-02T22:47:59.319Z,5.93
2022-11-02T22:50:29.366Z,4.47
2022-11-02T22:52:57.685Z,4.03
2022-11-02T22:55:28.296Z,2.90
2022-11-02T22:58:01.177Z,4.33
2022-11-02T23:00:28.142Z,3.20
2022-11-02T23:02:55.929Z,3.80
2022-11-02T23:05:26.047Z,4.63
2022-11-02T23:08:03.783Z,4.70
2022-11-02T23:10:55.120Z,3.80
2022-11-02T23:13:24.947Z,3.90
2022-11-02T23:16:21.312Z,5.13
2022-11-02T23:19:43.717Z,3.87
2022-11-02T23:22:34.058Z,4.73
2022-11-02T23:25:17.812Z,6.93
2022-11-02T23:28:16.469Z,4.40
2022-11-02T23:31:06.399Z,5.73
2022-11-02T23:33:41.441Z,6.97
2022-11-02T23:36:19.228Z,6.57
2022-11-02T23:39:09.857Z,8.57
2022-11-02T23:41:48.591Z,6.90
2022-11-02T23:44:19.037Z,5.40
2022-11-02T23:46:51.497Z,5.77
2022-11-02T23:49:20.084Z,6.17
2022-11-02T23:52:08.876Z,8.17
2022-11-02T23:54:57.381Z,6.67
2022-11-02T23:57:27.839Z,6.67
2022-11-02T23:59:54.881Z,6.67
